createdAt,value
2023-04-20T00:00:02.100Z,38.06
2023-04-20T00:01:02.129Z,38.07
2023-04-20T00:02:02.222Z,38.07
2023-04-20T00:03:02.279Z,38.06
2023-04-20T00:04:02.269Z,38.08
2023-04-20T00:05:02.215Z,38.03
2023-04-20T00:06:02.210Z,38.02
2023-04-20T00:07:02.241Z,37.96
2023-04-20T00:08:02.281Z,38.01
2023-04-20T00:09:02.328Z,38.00
2023-04-20T00:10:02.334Z,37.96
2023-04-20T00:11:02.356Z,37.99
2023-04-20T00:12:02.379Z,37.92
2023-04-20T00:13:02.441Z,37.97
2023-04-20T00:14:02.409Z,38.00
2023-04-20T00:15:02.431Z,37.95
2023-04-20T00:16:02.422Z,37.94
2023-04-20T00:17:02.607Z,37.93
2023-04-20T00:18:02.535Z,37.96
2023-04-20T00:19:02.518Z,37.93
2023-04-20T00:20:02.530Z,37.94
2023-04-20T00:21:02.593Z,37.94
2023-04-20T00:22:02.614Z,37.93
2023-04-20T00:23:02.599Z,37.92
2023-04-20T00:24:02.650Z,37.90
2023-04-20T00:25:02.665Z,37.92
2023-04-20T00:26:02.692Z,37.93
2023-04-20T00:27:02.770Z,37.92
2023-04-20T00:28:02.774Z,37.91
2023-04-20T00:29:02.792Z,37.90
2023-04-20T00:30:02.812Z,37.90
2023-04-20T00:31:02.909Z,37.90
2023-04-20T00:32:02.851Z,37.88
2023-04-20T00:33:02.918Z,37.93
2023-04-20T00:34:02.918Z,37.88
2023-04-20T00:35:02.959Z,37.89
2023-04-20T00:36:03.017Z,37.87
2023-04-20T00:37:03.051Z,37.85
2023-04-20T00:38:03.053Z,37.86
2023-04-20T00:39:03.070Z,37.86
2023-04-20T00:40:03.095Z,37.86
2023-04-20T00:41:03.115Z,37.83
2023-04-20T00:42:03.168Z,37.82
2023-04-20T00:43:03.194Z,37.83
2023-04-20T00:44:03.222Z,37.82
2023-04-20T00:45:03.291Z,37.80
2023-04-20T00:46:03.324Z,37.80
2023-04-20T00:47:03.349Z,37.79
2023-04-20T00:48:03.466Z,37.79
2023-04-20T00:49:03.465Z,37.79
2023-04-20T00:50:03.476Z,37.78
2023-04-20T00:51:03.502Z,37.74
2023-04-20T00:52:03.687Z,37.74
2023-04-20T00:53:03.587Z,37.74
2023-04-20T00:54:03.648Z,37.73
2023-04-20T00:55:03.637Z,37.73
2023-04-20T00:56:03.678Z,37.72
2023-04-20T00:57:03.720Z,37.73
2023-04-20T00:58:03.742Z,37.71
2023-04-20T00:59:03.819Z,37.69
2023-04-20T01:00:03.818Z,37.68
2023-04-20T01:01:03.890Z,37.69
2023-04-20T01:02:04.089Z,37.67
2023-04-20T01:03:04.102Z,37.66
2023-04-20T01:04:04.165Z,37.67
2023-04-20T01:05:04.071Z,37.64
2023-04-20T01:06:04.076Z,37.66
2023-04-20T01:07:04.109Z,37.63
2023-04-20T01:08:04.176Z,37.65
2023-04-20T01:09:04.238Z,37.60
2023-04-20T01:10:04.302Z,37.61
2023-04-20T01:11:04.284Z,37.63
2023-04-20T01:12:04.334Z,37.59
2023-04-20T01:13:04.404Z,37.59
2023-04-20T01:14:04.415Z,37.61
2023-04-20T01:15:04.442Z,37.57
2023-04-20T01:16:04.480Z,37.60
2023-04-20T01:17:04.484Z,37.56
2023-04-20T01:18:04.594Z,37.55
2023-04-20T01:19:04.575Z,37.53
2023-04-20T01:20:04.618Z,37.54
2023-04-20T01:21:04.663Z,37.53
2023-04-20T01:22:04.707Z,37.54
2023-04-20T01:23:04.765Z,37.54
2023-04-20T01:24:04.741Z,37.53
2023-04-20T01:25:04.807Z,37.52
2023-04-20T01:26:04.805Z,37.52
2023-04-20T01:27:04.848Z,37.55
2023-04-20T01:28:04.849Z,37.54
2023-04-20T01:29:04.927Z,37.54
2023-04-20T01:30:04.945Z,37.54
2023-04-20T01:31:05.080Z,37.52
2023-04-20T01:32:05.028Z,37.51
2023-04-20T01:33:05.098Z,37.51
2023-04-20T01:34:05.134Z,37.50
2023-04-20T01:35:05.246Z,37.49
2023-04-20T01:36:05.161Z,37.51
2023-04-20T01:37:05.229Z,37.49
2023-04-20T01:38:05.309Z,37.49
2023-04-20T01:39:05.367Z,37.49
2023-04-20T01:40:05.390Z,37.49
2023-04-20T01:41:05.428Z,37.48
2023-04-20T01:42:05.429Z,37.47
2023-04-20T01:43:05.494Z,37.47
2023-04-20T01:44:05.555Z,37.47
2023-04-20T01:45:05.540Z,37.47
2023-04-20T01:46:05.572Z,37.44
2023-04-20T01:47:05.687Z,37.45
2023-04-20T01:48:05.683Z,37.46
2023-04-20T01:49:07.186Z,37.46
2023-04-20T01:50:05.777Z,37.45
2023-04-20T01:51:05.776Z,37.45
2023-04-20T01:52:05.764Z,37.42
2023-04-20T01:53:05.787Z,37.42
2023-04-20T01:54:05.842Z,37.44
2023-04-20T01:55:05.891Z,37.41
2023-04-20T01:56:05.890Z,37.39
2023-04-20T01:57:05.908Z,37.41
2023-04-20T01:58:05.928Z,37.38
2023-04-20T01:59:06.018Z,37.39
2023-04-20T02:00:06.025Z,37.38
2023-04-20T02:01:06.143Z,37.39
2023-04-20T02:02:06.177Z,37.37
2023-04-20T02:03:06.220Z,37.35
2023-04-20T02:04:06.258Z,37.35
2023-04-20T02:05:06.206Z,37.36
2023-04-20T02:06:06.243Z,37.38
2023-04-20T02:07:06.251Z,37.35
2023-04-20T02:08:06.275Z,37.34
2023-04-20T02:09:06.325Z,37.33
2023-04-20T02:10:06.349Z,37.33
2023-04-20T02:11:06.443Z,37.33
2023-04-20T02:12:06.439Z,37.32
2023-04-20T02:13:06.469Z,37.30
2023-04-20T02:14:06.480Z,37.31
2023-04-20T02:15:06.498Z,37.31
2023-04-20T02:16:06.559Z,37.29
2023-04-20T02:17:06.595Z,37.30
2023-04-20T02:18:06.641Z,37.29
2023-04-20T02:19:06.629Z,37.27
2023-04-20T02:20:06.766Z,37.29
2023-04-20T02:21:06.716Z,37.29
2023-04-20T02:22:06.741Z,37.29
2023-04-20T02:23:06.781Z,37.30
2023-04-20T02:24:06.881Z,37.29
2023-04-20T02:25:06.877Z,37.27
2023-04-20T02:26:06.908Z,37.26
2023-04-20T02:27:06.976Z,37.26
2023-04-20T02:28:06.985Z,37.26
2023-04-20T02:29:07.054Z,37.24
2023-04-20T02:30:07.082Z,37.27
2023-04-20T02:31:07.153Z,37.26
2023-04-20T02:32:07.126Z,37.26
2023-04-20T02:33:07.196Z,37.29
2023-04-20T02:34:07.251Z,37.27
2023-04-20T02:35:07.265Z,37.26
2023-04-20T02:36:07.300Z,37.26
2023-04-20T02:37:07.315Z,37.26
2023-04-20T02:38:07.334Z,37.27
2023-04-20T02:39:07.375Z,37.24
2023-04-20T02:40:07.374Z,37.25
2023-04-20T02:41:07.432Z,37.26
2023-04-20T02:42:07.452Z,37.25
2023-04-20T02:43:07.481Z,37.22
2023-04-20T02:44:07.506Z,37.24
2023-04-20T02:45:07.663Z,37.23
2023-04-20T02:46:07.628Z,37.24
2023-04-20T02:47:07.626Z,37.23
2023-04-20T02:48:07.679Z,37.23
2023-04-20T02:49:07.753Z,37.22
2023-04-20T02:50:07.777Z,37.22
2023-04-20T02:51:07.733Z,37.20
2023-04-20T02:52:07.808Z,37.22
2023-04-20T02:53:07.854Z,37.21
2023-04-20T02:54:07.845Z,37.20
2023-04-20T02:55:07.861Z,37.22
2023-04-20T02:56:07.874Z,37.23
2023-04-20T02:57:07.896Z,37.22
2023-04-20T02:58:07.984Z,37.20
2023-04-20T02:59:07.988Z,37.18
2023-04-20T03:00:08.055Z,37.21
2023-04-20T03:01:08.072Z,37.19
2023-04-20T03:02:08.152Z,37.20
2023-04-20T03:03:08.235Z,37.20
2023-04-20T03:04:08.322Z,37.18
2023-04-20T03:05:08.205Z,37.16
2023-04-20T03:06:08.232Z,37.16
2023-04-20T03:07:08.299Z,37.14
2023-04-20T03:08:08.295Z,37.18
2023-04-20T03:09:08.337Z,37.15
2023-04-20T03:10:08.420Z,37.15
2023-04-20T03:11:08.394Z,37.15
2023-04-20T03:12:08.436Z,37.15
2023-04-20T03:13:08.485Z,37.15
2023-04-20T03:14:08.524Z,37.13
2023-04-20T03:15:08.620Z,37.14
2023-04-20T03:16:08.641Z,37.11
2023-04-20T03:17:08.633Z,37.14
2023-04-20T03:18:08.654Z,37.13
2023-04-20T03:19:08.740Z,37.14
2023-04-20T03:20:08.734Z,37.10
2023-04-20T03:21:08.771Z,37.11
2023-04-20T03:22:08.811Z,37.12
2023-04-20T03:23:08.850Z,37.12
2023-04-20T03:24:08.890Z,37.12
2023-04-20T03:25:09.004Z,37.11
2023-04-20T03:26:08.931Z,37.11
2023-04-20T03:27:08.978Z,37.08
2023-04-20T03:28:08.973Z,37.08
2023-04-20T03:29:09.064Z,37.09
2023-04-20T03:30:09.188Z,37.10
2023-04-20T03:31:09.148Z,37.10
2023-04-20T03:32:09.278Z,37.06
2023-04-20T03:33:09.363Z,37.08
2023-04-20T03:34:09.284Z,37.05
2023-04-20T03:35:09.426Z,37.05
2023-04-20T03:36:09.339Z,37.07
2023-04-20T03:37:09.409Z,37.04
2023-04-20T03:38:09.474Z,37.06
2023-04-20T03:39:09.504Z,37.06
2023-04-20T03:40:09.518Z,37.06
2023-04-20T03:41:09.540Z,37.06
2023-04-20T03:42:09.618Z,37.05
2023-04-20T03:43:09.628Z,37.06
2023-04-20T03:44:09.680Z,37.07
2023-04-20T03:45:09.708Z,37.07
2023-04-20T03:46:09.764Z,37.05
2023-04-20T03:47:09.797Z,37.04
2023-04-20T03:48:09.801Z,37.04
2023-04-20T03:49:10.243Z,37.04
2023-04-20T03:50:09.915Z,37.05
2023-04-20T03:51:09.952Z,37.02
2023-04-20T03:52:09.995Z,37.04
2023-04-20T03:53:10.108Z,37.03
2023-04-20T03:54:10.088Z,37.04
2023-04-20T03:55:10.155Z,37.00
2023-04-20T03:56:10.175Z,37.02
2023-04-20T03:57:10.258Z,36.99
2023-04-20T03:58:10.197Z,37.00
2023-04-20T03:59:10.282Z,36.99
2023-04-20T04:00:10.267Z,37.00
2023-04-20T04:01:10.330Z,37.02
2023-04-20T04:02:10.483Z,36.99
2023-04-20T04:03:10.602Z,36.98
2023-04-20T04:04:10.645Z,36.98
2023-04-20T04:05:10.554Z,36.97
2023-04-20T04:06:10.513Z,36.99
2023-04-20T04:07:10.578Z,36.96
2023-04-20T04:08:10.607Z,36.97
2023-04-20T04:09:10.682Z,36.96
2023-04-20T04:10:10.696Z,36.97
2023-04-20T04:11:10.755Z,36.96
2023-04-20T04:12:10.765Z,36.96
2023-04-20T04:13:10.821Z,36.94
2023-04-20T04:14:10.862Z,36.95
2023-04-20T04:15:10.900Z,36.97
2023-04-20T04:16:10.959Z,36.95
2023-04-20T04:17:11.082Z,36.94
2023-04-20T04:18:11.059Z,36.95
2023-04-20T04:19:11.122Z,36.95
2023-04-20T04:20:11.160Z,36.94
2023-04-20T04:21:11.332Z,36.93
2023-04-20T04:22:11.275Z,36.95
2023-04-20T04:23:11.294Z,36.91
2023-04-20T04:24:11.342Z,36.90
2023-04-20T04:25:11.432Z,36.91
2023-04-20T04:26:11.464Z,36.93
2023-04-20T04:27:11.485Z,36.92
2023-04-20T04:28:11.523Z,36.91
2023-04-20T04:29:11.598Z,36.89
2023-04-20T04:30:11.717Z,36.90
2023-04-20T04:31:11.684Z,36.88
2023-04-20T04:32:11.704Z,36.88
2023-04-20T04:33:11.757Z,36.89
2023-04-20T04:34:11.820Z,36.90
2023-04-20T04:35:11.867Z,36.90
2023-04-20T04:36:11.880Z,36.89
2023-04-20T04:37:11.931Z,36.88
2023-04-20T04:38:11.980Z,36.89
2023-04-20T04:39:12.006Z,36.89
2023-04-20T04:40:12.069Z,36.90
2023-04-20T04:41:12.113Z,36.87
2023-04-20T04:42:12.134Z,36.87
2023-04-20T04:43:12.236Z,36.87
2023-04-20T04:44:12.212Z,36.88
2023-04-20T04:45:12.221Z,36.88
2023-04-20T04:46:12.366Z,36.87
2023-04-20T04:47:12.328Z,36.86
2023-04-20T04:48:12.690Z,36.87
2023-04-20T04:49:12.460Z,36.84
2023-04-20T04:50:12.527Z,36.83
2023-04-20T04:51:12.587Z,36.84
2023-04-20T04:52:12.592Z,36.85
2023-04-20T04:53:12.707Z,36.83
2023-04-20T04:54:12.706Z,36.83
2023-04-20T04:55:15.036Z,36.83
2023-04-20T04:56:12.756Z,36.83
2023-04-20T04:57:12.754Z,36.81
2023-04-20T04:58:12.768Z,36.81
2023-04-20T04:59:12.761Z,36.82
2023-04-20T05:00:12.867Z,36.78
2023-04-20T05:01:12.736Z,36.78
2023-04-20T05:02:12.813Z,36.81
2023-04-20T05:03:13.406Z,36.80
2023-04-20T05:04:12.803Z,36.81
2023-04-20T05:05:12.691Z,36.82
2023-04-20T05:06:12.708Z,36.79
2023-04-20T05:07:12.704Z,36.77
2023-04-20T05:08:12.670Z,36.77
2023-04-20T05:09:12.687Z,36.78
2023-04-20T05:10:14.733Z,36.77
2023-04-20T05:11:12.776Z,36.78
2023-04-20T05:12:12.840Z,36.77
2023-04-20T05:13:12.900Z,36.74
2023-04-20T05:14:13.331Z,36.74
2023-04-20T05:15:13.022Z,36.72
2023-04-20T05:16:13.030Z,36.74
2023-04-20T05:17:13.045Z,36.73
2023-04-20T05:18:13.153Z,36.72
2023-04-20T05:19:13.189Z,36.72
2023-04-20T05:20:13.189Z,36.69
2023-04-20T05:21:13.274Z,36.68
2023-04-20T05:22:13.321Z,36.71
2023-04-20T05:23:13.330Z,36.67
2023-04-20T05:24:13.377Z,36.69
2023-04-20T05:25:14.176Z,36.68
2023-04-20T05:26:13.489Z,36.65
2023-04-20T05:27:13.578Z,36.70
2023-04-20T05:28:13.598Z,36.67
2023-04-20T05:29:13.634Z,36.66
2023-04-20T05:30:21.479Z,36.66
2023-04-20T05:31:14.652Z,36.67
2023-04-20T05:32:13.832Z,36.60
2023-04-20T05:33:13.641Z,36.58
2023-04-20T05:34:13.794Z,36.64
2023-04-20T05:35:13.621Z,34.70
2023-04-20T05:36:13.614Z,33.32
2023-04-20T05:37:13.638Z,31.82
2023-04-20T05:38:13.666Z,32.93
2023-04-20T05:39:13.615Z,33.00
2023-04-20T05:40:13.661Z,34.13
2023-04-20T05:41:13.581Z,34.32
2023-04-20T05:42:13.650Z,34.39
2023-04-20T05:43:13.618Z,34.84
2023-04-20T05:44:13.636Z,35.25
2023-04-20T05:45:13.654Z,35.62
2023-04-20T05:46:14.323Z,35.71
2023-04-20T05:47:13.695Z,35.77
2023-04-20T05:48:13.698Z,35.92
2023-04-20T05:49:14.287Z,36.21
2023-04-20T05:50:13.786Z,36.33
2023-04-20T05:51:13.806Z,36.50
2023-04-20T05:52:13.881Z,36.64
2023-04-20T05:53:13.889Z,36.62
2023-04-20T05:54:14.294Z,36.70
2023-04-20T05:55:16.296Z,36.89
2023-04-20T05:56:14.006Z,36.86
2023-04-20T05:57:13.968Z,37.03
2023-04-20T05:58:13.997Z,37.04
2023-04-20T05:59:13.981Z,37.00
2023-04-20T06:00:13.961Z,36.98
2023-04-20T06:01:13.946Z,37.03
2023-04-20T06:02:14.102Z,36.91
2023-04-20T06:03:14.128Z,37.01
2023-04-20T06:04:14.127Z,37.01
2023-04-20T06:05:13.973Z,36.93
2023-04-20T06:06:14.931Z,36.88
2023-04-20T06:07:14.149Z,36.92
2023-04-20T06:08:14.158Z,37.07
2023-04-20T06:09:14.798Z,37.03
2023-04-20T06:10:14.227Z,36.90
2023-04-20T06:11:14.268Z,36.94
2023-04-20T06:12:14.257Z,36.95
2023-04-20T06:13:14.325Z,36.77
2023-04-20T06:14:14.357Z,36.71
2023-04-20T06:15:14.315Z,36.77
2023-04-20T06:16:14.388Z,36.66
2023-04-20T06:17:14.400Z,36.58
2023-04-20T06:18:14.418Z,36.57
2023-04-20T06:19:14.533Z,36.57
2023-04-20T06:20:14.354Z,36.44
2023-04-20T06:21:14.362Z,36.50
2023-04-20T06:22:14.403Z,36.46
2023-04-20T06:23:14.419Z,36.46
2023-04-20T06:24:14.406Z,36.51
2023-04-20T06:25:14.608Z,36.48
2023-04-20T06:26:14.471Z,36.52
2023-04-20T06:27:14.501Z,36.61
2023-04-20T06:28:14.574Z,36.65
2023-04-20T06:29:14.724Z,36.81
2023-04-20T06:30:14.638Z,36.91
2023-04-20T06:31:14.721Z,37.05
2023-04-20T06:32:14.747Z,37.41
2023-04-20T06:33:15.001Z,37.60
2023-04-20T06:34:14.788Z,37.56
2023-04-20T06:35:15.073Z,37.56
2023-04-20T06:36:15.092Z,37.95
2023-04-20T06:37:15.168Z,37.89
2023-04-20T06:38:14.981Z,37.86
2023-04-20T06:39:16.101Z,37.79
2023-04-20T06:40:16.262Z,37.66
2023-04-20T06:41:15.150Z,37.49
2023-04-20T06:42:16.262Z,37.23
2023-04-20T06:43:15.287Z,37.00
2023-04-20T06:44:15.860Z,36.88
2023-04-20T06:45:15.359Z,36.74
2023-04-20T06:46:15.362Z,36.57
2023-04-20T06:47:15.361Z,36.54
2023-04-20T06:48:30.622Z,36.42
2023-04-20T06:49:17.064Z,36.33
2023-04-20T06:50:15.459Z,36.25
2023-04-20T06:51:15.382Z,36.12
2023-04-20T06:52:15.525Z,36.09
2023-04-20T06:53:15.316Z,36.02
2023-04-20T06:54:15.869Z,35.96
2023-04-20T06:55:15.303Z,35.91
2023-04-20T06:56:15.294Z,35.83
2023-04-20T06:57:15.276Z,35.78
2023-04-20T06:58:15.290Z,35.70
2023-04-20T06:59:16.235Z,35.67
2023-04-20T07:00:15.456Z,35.64
2023-04-20T07:01:15.328Z,35.59
2023-04-20T07:02:15.337Z,35.53
2023-04-20T07:03:15.494Z,35.57
2023-04-20T07:04:15.322Z,35.58
2023-04-20T07:05:15.375Z,35.58
2023-04-20T07:06:15.212Z,35.54
2023-04-20T07:07:15.225Z,35.55
2023-04-20T07:08:15.565Z,35.55
2023-04-20T07:09:15.412Z,35.53
2023-04-20T07:10:15.270Z,35.56
2023-04-20T07:11:15.294Z,35.57
2023-04-20T07:12:15.300Z,35.60
2023-04-20T07:13:15.343Z,35.59
2023-04-20T07:14:15.405Z,35.58
2023-04-20T07:15:15.348Z,35.62
2023-04-20T07:16:15.498Z,35.61
2023-04-20T07:17:15.391Z,35.62
2023-04-20T07:18:15.420Z,35.66
2023-04-20T07:19:15.599Z,35.65
2023-04-20T07:20:15.468Z,35.66
2023-04-20T07:21:15.635Z,35.66
2023-04-20T07:22:15.504Z,35.67
2023-04-20T07:23:15.536Z,35.70
2023-04-20T07:24:15.575Z,35.70
2023-04-20T07:25:15.610Z,35.70
2023-04-20T07:26:15.578Z,35.69
2023-04-20T07:27:15.620Z,35.73
2023-04-20T07:28:15.661Z,35.73
2023-04-20T07:29:15.893Z,35.73
2023-04-20T07:30:15.749Z,35.77
2023-04-20T07:31:15.842Z,35.86
2023-04-20T07:32:15.834Z,36.17
2023-04-20T07:33:15.758Z,36.51
2023-04-20T07:34:15.936Z,36.63
2023-04-20T07:35:15.789Z,36.94
2023-04-20T07:36:15.818Z,37.18
2023-04-20T07:37:15.827Z,37.69
2023-04-20T07:38:15.842Z,38.01
2023-04-20T07:39:16.252Z,38.10
2023-04-20T07:40:15.898Z,38.17
2023-04-20T07:41:15.963Z,38.51
2023-04-20T07:42:15.927Z,38.65
2023-04-20T07:43:15.950Z,38.90
2023-04-20T07:44:16.015Z,39.52
2023-04-20T07:45:16.114Z,39.65
2023-04-20T07:46:16.196Z,39.99
2023-04-20T07:47:16.217Z,40.25
2023-04-20T07:48:16.192Z,40.45
2023-04-20T07:49:16.842Z,40.65
2023-04-20T07:50:16.297Z,40.86
2023-04-20T07:51:16.332Z,40.96
2023-04-20T07:52:17.512Z,41.02
2023-04-20T07:53:16.392Z,41.16
2023-04-20T07:54:16.563Z,41.11
2023-04-20T07:55:16.486Z,41.11
2023-04-20T07:56:16.493Z,41.15
2023-04-20T07:57:16.668Z,41.12
2023-04-20T07:58:16.586Z,41.15
2023-04-20T07:59:16.873Z,41.21
2023-04-20T08:00:16.670Z,41.21
2023-04-20T08:01:16.689Z,41.16
2023-04-20T08:02:16.804Z,40.93
2023-04-20T08:03:17.029Z,40.81
2023-04-20T08:04:17.000Z,40.73
2023-04-20T08:05:17.151Z,40.68
2023-04-20T08:06:16.911Z,40.65
2023-04-20T08:07:16.964Z,40.66
2023-04-20T08:08:17.003Z,40.59
2023-04-20T08:09:17.255Z,40.58
2023-04-20T08:10:17.116Z,40.56
2023-04-20T08:11:17.140Z,40.55
2023-04-20T08:12:17.200Z,40.50
2023-04-20T08:13:17.381Z,40.46
2023-04-20T08:14:17.482Z,40.46
2023-04-20T08:15:17.434Z,40.46
2023-04-20T08:16:17.512Z,40.46
2023-04-20T08:17:17.533Z,40.46
2023-04-20T08:18:18.356Z,40.39
2023-04-20T08:19:17.598Z,40.39
2023-04-20T08:20:17.676Z,40.36
2023-04-20T08:21:17.840Z,40.35
2023-04-20T08:22:17.746Z,40.31
2023-04-20T08:23:17.940Z,40.32
2023-04-20T08:24:18.200Z,40.24
2023-04-20T08:25:17.807Z,40.21
2023-04-20T08:26:17.895Z,40.20
2023-04-20T08:27:17.893Z,40.16
2023-04-20T08:29:18.395Z,40.14
2023-04-20T08:30:17.906Z,40.11
2023-04-20T08:31:18.002Z,40.09
2023-04-20T08:32:18.002Z,40.07
2023-04-20T08:33:17.902Z,40.00
2023-04-20T08:34:18.404Z,39.97
2023-04-20T08:35:17.937Z,39.95
2023-04-20T08:36:18.000Z,39.95
2023-04-20T08:37:17.938Z,39.93
2023-04-20T08:38:20.750Z,39.90
2023-04-20T08:39:18.882Z,39.91
2023-04-20T08:40:17.904Z,39.85
2023-04-20T08:41:17.849Z,39.85
2023-04-20T08:42:17.865Z,39.78
2023-04-20T08:43:17.832Z,39.54
2023-04-20T08:44:18.078Z,39.59
2023-04-20T08:45:18.429Z,39.41
2023-04-20T08:46:17.853Z,39.31
2023-04-20T08:47:17.823Z,39.25
2023-04-20T08:48:17.820Z,39.22
2023-04-20T08:49:17.904Z,39.22
2023-04-20T08:50:18.374Z,39.18
2023-04-20T08:51:17.935Z,39.17
2023-04-20T08:52:17.842Z,39.11
2023-04-20T08:53:18.385Z,39.08
2023-04-20T08:54:18.147Z,39.08
2023-04-20T08:55:17.745Z,39.07
2023-04-20T08:56:17.756Z,39.06
2023-04-20T08:57:17.819Z,39.05
2023-04-20T08:58:17.723Z,39.03
2023-04-20T08:59:17.778Z,39.00
2023-04-20T09:00:17.796Z,38.99
2023-04-20T09:01:22.518Z,38.99
2023-04-20T09:02:18.819Z,39.00
2023-04-20T09:03:18.034Z,38.96
2023-04-20T09:04:18.065Z,38.95
2023-04-20T09:05:17.876Z,38.92
2023-04-20T09:06:17.760Z,38.92
2023-04-20T09:07:17.769Z,38.90
2023-04-20T09:08:17.779Z,38.90
2023-04-20T09:09:18.172Z,38.89
2023-04-20T09:10:17.724Z,38.87
2023-04-20T09:11:17.843Z,38.87
2023-04-20T09:12:17.722Z,38.90
2023-04-20T09:13:17.724Z,38.84
2023-04-20T09:14:18.217Z,38.86
2023-04-20T09:15:17.722Z,38.87
2023-04-20T09:16:17.732Z,38.84
2023-04-20T09:17:18.181Z,38.82
2023-04-20T09:18:17.762Z,38.80
2023-04-20T09:19:17.696Z,38.80
2023-04-20T09:20:17.651Z,38.79
2023-04-20T09:21:17.662Z,38.77
2023-04-20T09:22:17.648Z,38.77
2023-04-20T09:23:17.673Z,38.75
2023-04-20T09:24:17.747Z,38.74
2023-04-20T09:25:17.688Z,38.75
2023-04-20T09:26:17.638Z,38.71
2023-04-20T09:27:17.646Z,38.71
2023-04-20T09:28:17.697Z,38.70
2023-04-20T09:29:17.997Z,38.68
2023-04-20T09:30:17.748Z,38.68
2023-04-20T09:31:17.722Z,38.67
2023-04-20T09:32:17.950Z,38.68
2023-04-20T09:33:17.889Z,38.75
2023-04-20T09:34:18.113Z,38.65
2023-04-20T09:35:17.824Z,38.73
2023-04-20T09:36:17.868Z,38.92
2023-04-20T09:37:17.957Z,39.01
2023-04-20T09:38:17.920Z,39.09
2023-04-20T09:39:18.404Z,39.24
2023-04-20T09:40:18.027Z,39.34
2023-04-20T09:41:18.154Z,39.46
2023-04-20T09:42:18.139Z,39.62
2023-04-20T09:43:18.166Z,39.80
2023-04-20T09:44:18.507Z,39.92
2023-04-20T09:45:18.342Z,40.04
2023-04-20T09:46:18.345Z,40.24
2023-04-20T09:47:18.374Z,40.30
2023-04-20T09:48:18.515Z,40.40
2023-04-20T09:49:18.903Z,40.57
2023-04-20T09:50:26.602Z,40.65
2023-04-20T09:51:19.465Z,40.74
2023-04-20T09:52:18.433Z,40.84
2023-04-20T09:53:18.422Z,40.94
2023-04-20T09:54:18.536Z,41.16
2023-04-20T09:55:18.414Z,41.42
2023-04-20T09:56:18.425Z,41.35
2023-04-20T09:57:18.412Z,41.47
2023-04-20T09:58:18.432Z,41.54
2023-04-20T09:59:18.375Z,41.61
2023-04-20T10:00:18.406Z,41.70
2023-04-20T10:01:18.498Z,41.68
2023-04-20T10:02:18.476Z,41.75
2023-04-20T10:03:18.615Z,41.85
2023-04-20T10:04:18.671Z,41.94
2023-04-20T10:05:18.607Z,41.79
2023-04-20T10:06:18.399Z,41.46
2023-04-20T10:07:18.373Z,41.30
2023-04-20T10:08:18.340Z,41.28
2023-04-20T10:09:18.362Z,41.14
2023-04-20T10:10:18.309Z,40.84
2023-04-20T10:11:18.354Z,40.61
2023-04-20T10:12:18.368Z,40.30
2023-04-20T10:13:18.305Z,40.08
2023-04-20T10:14:18.499Z,39.82
2023-04-20T10:15:18.366Z,39.45
2023-04-20T10:16:18.355Z,39.31
2023-04-20T10:17:18.617Z,37.96
2023-04-20T10:18:18.422Z,36.37
2023-04-20T10:19:18.425Z,34.93
2023-04-20T10:20:18.399Z,35.29
2023-04-20T10:21:18.430Z,33.75
2023-04-20T10:22:18.449Z,33.08
2023-04-20T10:23:18.675Z,33.30
2023-04-20T10:24:20.298Z,33.31
2023-04-20T10:25:18.577Z,32.24
2023-04-20T10:26:18.587Z,32.39
2023-04-20T10:27:18.630Z,31.71
2023-04-20T10:28:18.667Z,31.55
2023-04-20T10:29:18.725Z,31.57
2023-04-20T10:30:18.936Z,31.55
2023-04-20T10:31:18.758Z,31.77
2023-04-20T10:32:18.788Z,31.78
2023-04-20T10:33:20.430Z,31.87
2023-04-20T10:34:18.893Z,32.00
2023-04-20T10:35:18.926Z,32.21
2023-04-20T10:36:18.882Z,32.37
2023-04-20T10:37:18.947Z,32.67
2023-04-20T10:38:18.956Z,32.90
2023-04-20T10:39:19.839Z,33.08
2023-04-20T10:40:19.403Z,33.30
2023-04-20T10:41:19.031Z,33.61
2023-04-20T10:42:19.091Z,33.73
2023-04-20T10:43:19.044Z,33.79
2023-04-20T10:44:19.599Z,33.83
2023-04-20T10:45:19.934Z,33.82
2023-04-20T10:46:19.096Z,33.82
2023-04-20T10:47:19.116Z,33.88
2023-04-20T10:48:19.120Z,33.88
2023-04-20T10:49:19.502Z,33.89
2023-04-20T10:50:19.184Z,33.89
2023-04-20T10:51:19.147Z,33.92
2023-04-20T10:52:19.167Z,33.97
2023-04-20T10:53:19.211Z,34.00
2023-04-20T10:54:19.477Z,34.05
2023-04-20T10:55:19.280Z,34.06
2023-04-20T10:56:19.318Z,34.12
2023-04-20T10:57:19.310Z,34.18
2023-04-20T10:58:19.353Z,34.21
2023-04-20T10:59:19.570Z,34.25
2023-04-20T11:00:19.395Z,34.28
2023-04-20T11:01:19.461Z,34.29
2023-04-20T11:02:19.677Z,34.36
2023-04-20T11:03:19.613Z,34.37
2023-04-20T11:04:19.591Z,34.39
2023-04-20T11:05:19.692Z,34.39
2023-04-20T11:06:19.603Z,34.46
2023-04-20T11:07:19.647Z,34.50
2023-04-20T11:08:19.700Z,34.53
2023-04-20T11:09:19.938Z,34.53
2023-04-20T11:10:19.745Z,34.57
2023-04-20T11:11:19.831Z,34.56
2023-04-20T11:12:19.845Z,34.64
2023-04-20T11:13:19.830Z,34.71
2023-04-20T11:14:19.961Z,34.78
2023-04-20T11:15:19.942Z,35.07
2023-04-20T11:16:20.058Z,35.27
2023-04-20T11:17:20.024Z,35.45
2023-04-20T11:18:20.027Z,35.49
2023-04-20T11:19:20.099Z,35.43
2023-04-20T11:20:20.101Z,35.42
2023-04-20T11:21:20.110Z,35.46
2023-04-20T11:22:20.147Z,35.40
2023-04-20T11:23:20.214Z,35.43
2023-04-20T11:24:20.203Z,35.42
2023-04-20T11:25:20.274Z,35.42
2023-04-20T11:26:20.286Z,35.45
2023-04-20T11:27:20.360Z,35.50
2023-04-20T11:28:20.453Z,35.50
2023-04-20T11:29:20.518Z,35.53
2023-04-20T11:30:20.439Z,35.55
2023-04-20T11:31:20.553Z,35.57
2023-04-20T11:32:21.523Z,35.57
2023-04-20T11:33:20.639Z,35.59
2023-04-20T11:34:20.596Z,35.63
2023-04-20T11:35:20.633Z,35.63
2023-04-20T11:36:20.683Z,35.65
2023-04-20T11:37:20.721Z,35.68
2023-04-20T11:38:20.767Z,35.69
2023-04-20T11:39:20.811Z,35.73
2023-04-20T11:40:20.976Z,35.73
2023-04-20T11:41:20.927Z,35.75
2023-04-20T11:42:20.988Z,35.76
2023-04-20T11:43:21.017Z,35.75
2023-04-20T11:44:21.075Z,35.76
2023-04-20T11:45:21.470Z,35.79
2023-04-20T11:46:21.176Z,35.82
2023-04-20T11:47:21.390Z,35.79
2023-04-20T11:48:21.215Z,35.81
2023-04-20T11:49:21.273Z,35.79
2023-04-20T11:50:21.449Z,35.84
2023-04-20T11:51:21.394Z,35.82
2023-04-20T11:52:21.394Z,35.83
2023-04-20T11:53:21.473Z,35.84
2023-04-20T11:54:21.523Z,35.85
2023-04-20T11:55:22.007Z,35.86
2023-04-20T11:56:21.571Z,35.86
2023-04-20T11:57:21.660Z,35.90
2023-04-20T11:58:22.484Z,35.88
2023-04-20T11:59:21.861Z,35.89
2023-04-20T12:00:22.006Z,35.90
2023-04-20T12:01:21.868Z,35.93
2023-04-20T12:02:21.925Z,35.92
2023-04-20T12:03:22.160Z,35.92
2023-04-20T12:04:22.248Z,35.94
2023-04-20T12:05:22.037Z,35.93
2023-04-20T12:06:22.288Z,35.94
2023-04-20T12:07:22.124Z,35.97
2023-04-20T12:08:22.230Z,35.96
2023-04-20T12:09:22.240Z,35.94
2023-04-20T12:10:22.341Z,35.91
2023-04-20T12:11:22.376Z,35.96
2023-04-20T12:12:22.446Z,35.91
2023-04-20T12:13:22.514Z,35.92
2023-04-20T12:14:22.519Z,35.90
2023-04-20T12:15:22.624Z,35.94
2023-04-20T12:16:22.677Z,35.92
2023-04-20T12:17:22.806Z,35.95
2023-04-20T12:18:22.747Z,35.95
2023-04-20T12:19:22.867Z,35.95
2023-04-20T12:20:22.892Z,35.98
2023-04-20T12:21:22.924Z,35.98
2023-04-20T12:22:22.993Z,35.96
2023-04-20T12:23:23.038Z,36.02
2023-04-20T12:24:23.156Z,36.00
2023-04-20T12:25:23.123Z,36.01
2023-04-20T12:26:31.959Z,36.01
2023-04-20T12:27:24.138Z,36.02
2023-04-20T12:28:23.136Z,36.01
2023-04-20T12:29:23.146Z,36.01
2023-04-20T12:30:23.178Z,36.02
2023-04-20T12:31:25.071Z,36.01
2023-04-20T12:32:23.166Z,36.04
2023-04-20T12:33:23.116Z,36.03
2023-04-20T12:34:23.091Z,36.05
2023-04-20T12:35:23.134Z,36.02
2023-04-20T12:36:23.097Z,36.05
2023-04-20T12:37:23.107Z,36.02
2023-04-20T12:38:23.091Z,36.05
2023-04-20T12:39:23.108Z,36.06
2023-04-20T12:40:23.514Z,36.07
2023-04-20T12:41:23.071Z,36.04
2023-04-20T12:42:23.069Z,36.04
2023-04-20T12:43:23.058Z,36.05
2023-04-20T12:44:23.053Z,36.08
2023-04-20T12:45:23.038Z,36.06
2023-04-20T12:46:23.050Z,36.06
2023-04-20T12:47:23.054Z,36.07
2023-04-20T12:48:23.066Z,36.08
2023-04-20T12:49:23.028Z,36.09
2023-04-20T12:50:23.006Z,36.10
2023-04-20T12:51:23.003Z,36.12
2023-04-20T12:52:23.020Z,36.14
2023-04-20T12:53:22.989Z,36.13